createdAt,value
2018-04-22T00:02:10.989Z,61.40
2018-04-22T00:04:38.304Z,61.40
2018-04-22T00:07:04.810Z,62.50
2018-04-22T00:09:31.020Z,62.70
2018-04-22T00:11:59.033Z,61.60
2018-04-22T00:14:25.328Z,61.60
2018-04-22T00:16:52.549Z,63.80
2018-04-22T00:19:19.438Z,63.70
2018-04-22T00:21:46.303Z,64.70
2018-04-22T00:24:12.833Z,63.10
2018-04-22T00:26:39.670Z,64.00
2018-04-22T00:29:06.310Z,65.00
2018-04-22T00:31:33.830Z,65.20
2018-04-22T00:34:01.790Z,64.60
2018-04-22T00:36:27.983Z,64.60
2018-04-22T00:38:54.204Z,65.50
2018-04-22T00:41:21.073Z,65.20
2018-04-22T00:43:47.911Z,64.60
2018-04-22T00:46:15.404Z,65.00
2018-04-22T00:48:42.341Z,65.70
2018-04-22T00:51:10.332Z,65.70
2018-04-22T00:53:49.954Z,66.30
2018-04-22T00:56:18.171Z,66.20
2018-04-22T00:58:45.466Z,66.20
2018-04-22T01:01:12.209Z,66.60
2018-04-22T01:03:38.433Z,66.00
2018-04-22T01:06:05.847Z,66.10
2018-04-22T01:08:33.011Z,66.90
2018-04-22T01:11:00.046Z,66.20
2018-04-22T01:13:28.647Z,66.00
2018-04-22T01:15:55.634Z,67.50
2018-04-22T01:18:23.542Z,68.20
2018-04-22T01:20:49.750Z,68.20
2018-04-22T01:23:17.132Z,67.70
2018-04-22T01:25:43.448Z,67.30
2018-04-22T01:28:09.942Z,67.50
2018-04-22T01:30:37.494Z,67.00
2018-04-22T01:33:03.795Z,66.90
2018-04-22T01:35:30.878Z,66.90
2018-04-22T01:37:58.315Z,68.00
2018-04-22T01:40:25.310Z,67.30
2018-04-22T01:42:52.812Z,67.60
2018-04-22T01:45:19.127Z,67.50
2018-04-22T01:47:45.870Z,66.70
2018-04-22T01:50:12.091Z,67.80
2018-04-22T01:52:38.298Z,67.30
2018-04-22T01:55:05.104Z,66.70
2018-04-22T01:57:32.591Z,67.30
2018-04-22T01:59:59.332Z,67.30
2018-04-22T02:02:26.144Z,68.10
2018-04-22T02:04:52.824Z,68.20
2018-04-22T02:07:19.010Z,68.00
2018-04-22T02:09:46.677Z,67.90
2018-04-22T02:12:14.420Z,68.00
2018-04-22T02:14:41.217Z,68.00
2018-04-22T02:17:08.127Z,68.30
2018-04-22T02:19:35.290Z,68.70
2018-04-22T02:22:03.149Z,70.70
2018-04-22T02:24:30.120Z,70.50
2018-04-22T02:26:56.319Z,69.90
2018-04-22T02:29:24.240Z,70.60
2018-04-22T02:31:50.982Z,70.40
2018-04-22T02:34:17.984Z,71.40
2018-04-22T02:36:45.643Z,71.70
2018-04-22T02:39:12.383Z,71.70
2018-04-22T02:41:39.149Z,71.60
2018-04-22T02:44:05.920Z,71.40
2018-04-22T02:46:32.317Z,70.70
2018-04-22T02:48:59.898Z,71.60
2018-04-22T02:51:26.126Z,71.70
2018-04-22T02:53:53.309Z,70.80
2018-04-22T02:56:21.302Z,71.70
2018-04-22T02:58:47.655Z,71.70
2018-04-22T03:01:14.829Z,71.60
2018-04-22T03:03:42.083Z,70.90
2018-04-22T03:06:09.161Z,70.80
2018-04-22T03:08:36.064Z,70.90
2018-04-22T03:11:04.081Z,70.70
2018-04-22T03:13:31.580Z,70.50
2018-04-22T03:15:58.323Z,70.50
2018-04-22T03:18:24.586Z,70.50
2018-04-22T03:20:52.176Z,71.00
2018-04-22T03:23:19.093Z,70.90
2018-04-22T03:25:45.505Z,70.50
2018-04-22T03:28:12.764Z,71.70
2018-04-22T03:30:40.245Z,71.00
2018-04-22T03:33:07.178Z,72.40
2018-04-22T03:35:34.004Z,72.30
2018-04-22T03:38:00.221Z,72.60
2018-04-22T03:40:27.741Z,71.90
2018-04-22T03:42:53.970Z,71.40
2018-04-22T03:45:21.400Z,71.40
2018-04-22T03:47:49.343Z,71.60
2018-04-22T03:50:16.163Z,71.40
2018-04-22T03:52:43.357Z,71.70
2018-04-22T03:55:11.164Z,71.70
2018-04-22T03:57:37.603Z,71.60
2018-04-22T04:00:04.862Z,72.00
2018-04-22T04:02:31.673Z,71.80
2018-04-22T04:04:58.131Z,72.30
2018-04-22T04:07:25.333Z,72.10
2018-04-22T04:09:51.561Z,72.60
2018-04-22T04:12:19.702Z,73.10
2018-04-22T04:14:46.706Z,72.40
2018-04-22T04:17:13.031Z,72.40
2018-04-22T04:19:52.369Z,72.40
2018-04-22T04:22:31.202Z,71.90
2018-04-22T04:28:00.774Z,72.60
2018-04-22T04:30:27.565Z,72.90
2018-04-22T04:32:53.790Z,72.90
2018-04-22T04:35:19.994Z,73.10
2018-04-22T04:37:46.920Z,73.70
2018-04-22T04:40:13.659Z,73.50
2018-04-22T04:42:40.162Z,73.60
2018-04-22T04:45:07.412Z,74.90
2018-04-22T04:47:33.612Z,74.20
2018-04-22T04:50:00.477Z,74.30
2018-04-22T04:52:26.672Z,74.10
2018-04-22T04:54:54.324Z,73.40
2018-04-22T04:57:21.945Z,72.90
2018-04-22T04:59:49.948Z,73.00
2018-04-22T05:02:16.918Z,72.60
2018-04-22T05:04:43.132Z,72.60
2018-04-22T05:07:10.657Z,72.10
2018-04-22T05:09:38.008Z,70.90
2018-04-22T05:12:05.030Z,71.00
2018-04-22T05:14:31.338Z,70.90
2018-04-22T05:16:58.877Z,70.50
2018-04-22T05:19:25.687Z,69.50
2018-04-22T05:21:52.480Z,70.10
2018-04-22T05:24:18.705Z,69.90
2018-04-22T05:26:46.079Z,68.70
2018-04-22T05:29:13.637Z,68.30
2018-04-22T05:31:40.182Z,68.20
2018-04-22T05:34:07.212Z,66.40
2018-04-22T05:36:34.126Z,66.30
2018-04-22T05:39:00.637Z,65.30
2018-04-22T05:41:27.421Z,65.60
2018-04-22T05:43:54.188Z,64.00
2018-04-22T05:46:20.932Z,63.50
2018-04-22T05:48:47.230Z,62.00
2018-04-22T05:51:14.816Z,60.40
2018-04-22T05:53:41.716Z,60.40
2018-04-22T05:56:10.306Z,58.10
2018-04-22T05:58:37.264Z,58.40
2018-04-22T06:01:04.111Z,58.40
2018-04-22T06:03:32.823Z,58.50
2018-04-22T06:06:02.234Z,59.30
2018-04-22T06:08:28.753Z,58.90
2018-04-22T06:10:56.807Z,59.40
2018-04-22T06:13:23.389Z,59.90
2018-04-22T06:15:50.391Z,58.10
2018-04-22T06:18:16.719Z,58.10
2018-04-22T06:20:43.458Z,58.30
2018-04-22T06:23:10.641Z,57.80
2018-04-22T06:25:37.064Z,55.70
2018-04-22T06:28:03.381Z,54.90
2018-04-22T06:30:29.942Z,55.50
2018-04-22T06:32:56.925Z,54.70
2018-04-22T06:35:24.887Z,55.60
2018-04-22T06:37:52.022Z,55.50
2018-04-22T06:40:18.288Z,55.40
2018-04-22T06:42:44.866Z,55.00
2018-04-22T06:45:11.503Z,55.30
2018-04-22T06:47:38.060Z,55.00
2018-04-22T06:50:11.408Z,54.80
2018-04-22T06:52:37.825Z,54.00
2018-04-22T06:55:04.057Z,54.60
2018-04-22T06:57:30.482Z,54.40
2018-04-22T06:59:57.691Z,54.00
2018-04-22T07:02:25.503Z,54.30
2018-04-22T07:04:53.159Z,54.00
2018-04-22T07:07:22.303Z,54.00
2018-04-22T07:09:49.129Z,53.40
2018-04-22T07:12:15.389Z,52.00
2018-04-22T07:14:41.737Z,53.50
2018-04-22T07:17:08.675Z,52.30
2018-04-22T07:19:35.550Z,52.30
2018-04-22T07:22:02.099Z,52.60
2018-04-22T07:24:29.152Z,52.70
2018-04-22T07:26:56.279Z,52.70
2018-04-22T07:29:23.424Z,52.20
2018-04-22T07:31:50.192Z,52.20
2018-04-22T07:34:17.594Z,51.80
2018-04-22T07:36:44.534Z,50.70
2018-04-22T07:39:11.316Z,50.70
2018-04-22T07:41:37.509Z,50.40
2018-04-22T07:44:04.703Z,50.20
2018-04-22T07:46:32.496Z,49.90
2018-04-22T07:48:59.743Z,49.90
2018-04-22T07:51:26.483Z,49.90
2018-04-22T07:53:53.249Z,49.90
2018-04-22T07:56:19.750Z,50.30
2018-04-22T07:58:46.766Z,50.00
2018-04-22T08:01:13.293Z,50.00
2018-04-22T08:03:40.662Z,49.90
2018-04-22T08:06:08.092Z,49.60
2018-04-22T08:08:35.189Z,48.90
2018-04-22T08:11:06.447Z,48.90
2018-04-22T08:13:32.667Z,48.90
2018-04-22T08:16:00.228Z,47.30
2018-04-22T08:18:26.949Z,47.30
2018-04-22T08:20:53.693Z,45.10
2018-04-22T08:23:20.436Z,45.00
2018-04-22T08:25:46.627Z,45.70
2018-04-22T08:28:13.868Z,43.80
2018-04-22T08:30:41.382Z,43.40
2018-04-22T08:33:08.288Z,43.30
2018-04-22T08:35:35.642Z,43.60
2018-04-22T08:38:02.338Z,44.00
2018-04-22T08:40:29.612Z,44.60
2018-04-22T08:42:56.578Z,44.40
2018-04-22T08:45:23.844Z,44.30
2018-04-22T08:47:50.066Z,44.30
2018-04-22T08:50:17.177Z,45.30
2018-04-22T08:52:45.298Z,44.60
2018-04-22T08:55:12.083Z,44.50
2018-04-22T08:57:38.687Z,45.20
2018-04-22T09:00:05.742Z,44.50
2018-04-22T09:02:33.019Z,44.50
2018-04-22T09:04:59.997Z,43.30
2018-04-22T09:07:26.238Z,43.30
2018-04-22T09:09:52.969Z,43.40
2018-04-22T09:12:19.153Z,42.80
2018-04-22T09:14:46.335Z,42.40
2018-04-22T09:17:13.901Z,42.00
2018-04-22T09:19:41.368Z,41.60
2018-04-22T09:22:08.152Z,41.60
2018-04-22T09:24:34.367Z,40.80
2018-04-22T09:27:01.248Z,40.50
2018-04-22T09:29:29.289Z,41.30
2018-04-22T09:31:55.493Z,41.20
2018-04-22T09:34:21.861Z,41.60
2018-04-22T09:36:49.392Z,41.40
2018-04-22T09:39:15.606Z,41.30
2018-04-22T09:41:41.817Z,42.10
2018-04-22T09:44:08.570Z,42.30
2018-04-22T09:46:35.003Z,41.70
2018-04-22T09:49:02.019Z,40.80
2018-04-22T09:51:29.749Z,40.90
2018-04-22T09:53:56.513Z,40.90
2018-04-22T09:56:24.689Z,40.70
2018-04-22T09:58:52.237Z,40.80
2018-04-22T10:01:19.997Z,40.70
2018-04-22T10:03:48.561Z,40.00
2018-04-22T10:06:15.481Z,40.00
2018-04-22T10:08:42.223Z,40.40
2018-04-22T10:11:09.065Z,40.00
2018-04-22T10:13:35.485Z,39.50
2018-04-22T10:16:02.550Z,39.00
2018-04-22T10:18:28.749Z,39.00
2018-04-22T10:20:55.534Z,38.40
2018-04-22T10:23:21.742Z,38.30
2018-04-22T10:25:48.040Z,38.20
2018-04-22T10:28:14.790Z,38.00
2018-04-22T10:30:41.027Z,38.70
2018-04-22T10:33:08.676Z,38.50
2018-04-22T10:35:35.893Z,39.00
2018-04-22T10:38:02.170Z,38.30
2018-04-22T10:40:29.203Z,39.50
2018-04-22T10:42:56.930Z,38.30
2018-04-22T10:45:24.042Z,38.30
2018-04-22T10:47:50.980Z,37.80
2018-04-22T10:50:17.373Z,38.00
2018-04-22T10:52:44.944Z,37.70
2018-04-22T10:55:11.243Z,37.70
2018-04-22T10:57:37.852Z,37.60
2018-04-22T11:00:04.111Z,36.00
2018-04-22T11:02:30.510Z,36.30
2018-04-22T11:04:57.363Z,37.00
2018-04-22T11:07:24.206Z,37.50
2018-04-22T11:09:50.536Z,38.00
2018-04-22T11:12:17.410Z,35.90
2018-04-22T11:14:44.903Z,35.30
2018-04-22T11:17:11.690Z,35.20
2018-04-22T11:19:38.115Z,35.90
2018-04-22T11:22:07.026Z,36.20
2018-04-22T11:24:33.690Z,35.20
2018-04-22T11:27:00.829Z,34.00
2018-04-22T11:29:27.337Z,34.00
2018-04-22T11:31:54.752Z,34.90
2018-04-22T11:34:21.196Z,34.00
2018-04-22T11:36:48.243Z,32.90
2018-04-22T11:39:16.012Z,33.50
2018-04-22T11:41:43.799Z,34.10
2018-04-22T11:44:10.117Z,34.10
2018-04-22T11:46:36.388Z,34.10
2018-04-22T11:49:03.380Z,34.20
2018-04-22T11:51:29.638Z,34.20
2018-04-22T11:53:56.214Z,33.20
2018-04-22T11:56:23.733Z,32.80
2018-04-22T11:58:49.944Z,32.20
2018-04-22T12:01:17.048Z,30.40
2018-04-22T12:03:43.260Z,29.50
2018-04-22T12:06:10.842Z,30.30
2018-04-22T12:08:37.227Z,30.20
2018-04-22T12:11:03.987Z,31.00
2018-04-22T12:13:31.531Z,31.10
2018-04-22T12:15:57.733Z,31.00
2018-04-22T12:18:24.068Z,30.40
2018-04-22T12:20:50.766Z,30.60
2018-04-22T12:23:19.001Z,30.60
2018-04-22T12:25:45.746Z,30.60
2018-04-22T12:28:12.964Z,30.80
2018-04-22T12:30:40.539Z,29.30
2018-04-22T12:33:07.530Z,28.70
2018-04-22T12:35:33.780Z,28.80
2018-04-22T12:38:01.526Z,26.90
2018-04-22T12:40:27.892Z,27.30
2018-04-22T12:42:54.672Z,27.50
2018-04-22T12:45:20.945Z,27.90
2018-04-22T12:47:48.688Z,27.20
2018-04-22T12:50:15.706Z,28.40
2018-04-22T12:52:42.065Z,28.40
2018-04-22T12:55:08.517Z,28.80
2018-04-22T12:57:36.178Z,28.20
2018-04-22T13:00:02.403Z,27.80
2018-04-22T13:02:29.289Z,28.20
2018-04-22T13:04:55.518Z,28.00
2018-04-22T13:07:22.531Z,28.60
2018-04-22T13:09:49.316Z,28.40
2018-04-22T13:12:16.033Z,28.80
2018-04-22T13:14:42.999Z,29.30
2018-04-22T13:17:10.100Z,29.20
2018-04-22T13:19:43.641Z,28.70
2018-04-22T13:22:09.911Z,29.20
2018-04-22T13:24:36.819Z,29.00
2018-04-22T13:27:03.257Z,28.80
2018-04-22T13:29:30.217Z,28.50
2018-04-22T13:31:58.159Z,28.80
2018-04-22T13:34:24.949Z,28.80
2018-04-22T13:36:51.136Z,28.70
2018-04-22T13:39:17.809Z,28.70
2018-04-22T13:41:44.824Z,28.20
2018-04-22T13:44:11.783Z,29.00
2018-04-22T13:46:39.686Z,29.10
2018-04-22T13:49:05.889Z,29.10
2018-04-22T13:51:32.142Z,29.30
2018-04-22T13:53:58.339Z,28.50
2018-04-22T13:56:32.158Z,29.10
2018-04-22T13:58:59.239Z,29.30
2018-04-22T14:01:25.746Z,29.30
2018-04-22T14:03:52.794Z,29.20
2018-04-22T14:06:19.637Z,29.20
2018-04-22T14:08:45.955Z,29.20
2018-04-22T14:11:12.737Z,29.30
2018-04-22T14:13:39.289Z,29.50
2018-04-22T14:16:06.303Z,29.60
2018-04-22T14:18:33.144Z,29.60
2018-04-22T14:21:00.004Z,29.50
2018-04-22T14:23:26.216Z,29.40
2018-04-22T14:25:52.598Z,29.30
2018-04-22T14:28:19.720Z,30.00
2018-04-22T14:30:46.554Z,29.90
2018-04-22T14:33:12.797Z,29.50
2018-04-22T14:35:39.540Z,30.30
2018-04-22T14:38:05.729Z,29.80
2018-04-22T14:40:33.039Z,29.80
2018-04-22T14:43:00.475Z,29.10
2018-04-22T14:45:39.941Z,29.50
2018-04-22T14:48:07.652Z,29.20
2018-04-22T14:50:34.401Z,29.10
2018-04-22T14:53:00.571Z,29.00
2018-04-22T14:55:27.059Z,29.50
2018-04-22T14:57:53.849Z,29.90
2018-04-22T15:00:20.970Z,30.00
2018-04-22T15:02:48.663Z,29.40
2018-04-22T15:05:15.042Z,29.40
2018-04-22T15:07:41.824Z,29.50
2018-04-22T15:10:09.842Z,30.10
2018-04-22T15:12:37.111Z,30.00
2018-04-22T15:15:04.878Z,30.00
2018-04-22T15:17:31.084Z,30.40
2018-04-22T15:19:57.934Z,30.20
2018-04-22T15:22:24.851Z,30.60
2018-04-22T15:24:51.189Z,30.30
2018-04-22T15:27:17.387Z,30.40
2018-04-22T15:29:44.340Z,30.10
2018-04-22T15:32:11.304Z,30.00
2018-04-22T15:34:38.123Z,30.00
2018-04-22T15:37:04.915Z,30.00
2018-04-22T15:39:31.116Z,30.40
2018-04-22T15:41:58.222Z,30.60
2018-04-22T15:44:25.552Z,30.10
2018-04-22T15:46:52.549Z,30.40
2018-04-22T15:49:18.757Z,30.40
2018-04-22T15:51:46.308Z,30.80
2018-04-22T15:54:13.304Z,30.70
2018-04-22T15:56:39.528Z,30.60
2018-04-22T15:59:06.416Z,30.90
2018-04-22T16:01:33.244Z,31.10
2018-04-22T16:03:59.731Z,31.50
2018-04-22T16:06:26.052Z,31.10
2018-04-22T16:08:52.792Z,31.30
2018-04-22T16:11:19.533Z,31.60
2018-04-22T16:13:45.748Z,31.60
2018-04-22T16:16:13.696Z,32.60
2018-04-22T16:18:41.039Z,32.00
2018-04-22T16:21:07.255Z,32.00
2018-04-22T16:23:34.123Z,31.80
2018-04-22T16:26:01.112Z,31.90
2018-04-22T16:28:27.936Z,32.60
2018-04-22T16:30:55.179Z,32.40
2018-04-22T16:33:21.885Z,32.40
2018-04-22T16:35:48.840Z,33.30
2018-04-22T16:38:15.210Z,33.30
2018-04-22T16:40:42.347Z,32.90
2018-04-22T16:43:08.547Z,32.40
2018-04-22T16:45:35.414Z,33.10
2018-04-22T16:48:01.882Z,32.90
2018-04-22T16:50:28.983Z,32.90
2018-04-22T16:52:56.415Z,32.90
2018-04-22T16:55:22.911Z,32.90
2018-04-22T16:57:49.141Z,32.70
2018-04-22T17:00:15.540Z,34.10
2018-04-22T17:02:42.517Z,34.30
2018-04-22T17:05:10.045Z,34.20
2018-04-22T17:07:37.659Z,34.60
2018-04-22T17:10:03.863Z,34.60
2018-04-22T17:12:30.755Z,34.70
2018-04-22T17:14:56.968Z,35.80
2018-04-22T17:17:23.198Z,35.90
2018-04-22T17:19:49.984Z,36.40
2018-04-22T17:22:16.191Z,36.00
2018-04-22T17:24:43.364Z,36.90
2018-04-22T17:27:10.381Z,37.70
2018-04-22T17:29:36.693Z,37.70
2018-04-22T17:32:03.499Z,37.80
2018-04-22T17:34:29.705Z,37.80
2018-04-22T17:36:56.608Z,38.70
2018-04-22T17:39:23.829Z,39.00
2018-04-22T17:41:50.115Z,40.30
2018-04-22T17:44:17.064Z,41.20
2018-04-22T17:46:44.027Z,40.10
2018-04-22T17:49:10.293Z,40.10
2018-04-22T17:51:37.218Z,40.90
2018-04-22T17:54:03.936Z,40.60
2018-04-22T17:56:30.416Z,41.40
2018-04-22T17:58:57.428Z,42.80
2018-04-22T18:01:24.411Z,42.20
2018-04-22T18:03:51.729Z,42.30
2018-04-22T18:06:19.104Z,42.90
2018-04-22T18:08:46.122Z,42.90
2018-04-22T18:11:12.345Z,42.80
2018-04-22T18:13:39.174Z,42.80
2018-04-22T18:16:06.638Z,43.80
2018-04-22T18:18:33.011Z,43.80
2018-04-22T18:21:00.629Z,45.70
2018-04-22T18:23:27.419Z,45.60
2018-04-22T18:25:53.808Z,45.70
2018-04-22T18:28:21.361Z,45.30
2018-04-22T18:30:48.693Z,45.90
2018-04-22T18:33:16.641Z,44.90
2018-04-22T18:35:44.950Z,45.70
2018-04-22T18:38:12.377Z,45.80
2018-04-22T18:40:39.270Z,45.80
2018-04-22T18:43:05.839Z,46.30
2018-04-22T18:45:32.049Z,46.60
2018-04-22T18:47:58.979Z,45.90
2018-04-22T18:50:25.487Z,46.10
2018-04-22T18:52:52.971Z,46.20
2018-04-22T18:55:19.234Z,46.20
2018-04-22T18:57:45.699Z,46.60
2018-04-22T19:00:13.515Z,45.60
2018-04-22T19:02:40.725Z,45.60
2018-04-22T19:05:07.808Z,46.30
2018-04-22T19:07:34.154Z,46.30
2018-04-22T19:10:01.517Z,46.40
2018-04-22T19:12:28.409Z,46.80
2018-04-22T19:14:55.318Z,47.30
2018-04-22T19:17:22.323Z,46.80
2018-04-22T19:19:48.636Z,46.70
2018-04-22T19:22:16.622Z,47.20
2018-04-22T19:24:43.550Z,47.50
2018-04-22T19:27:10.428Z,48.20
2018-04-22T19:29:38.448Z,47.40
2018-04-22T19:32:06.220Z,47.50
2018-04-22T19:34:33.380Z,47.80
2018-04-22T19:36:59.740Z,47.80
2018-04-22T19:39:26.143Z,47.10
2018-04-22T19:41:53.946Z,47.30
2018-04-22T19:44:21.682Z,47.80
2018-04-22T19:46:49.298Z,47.70
2018-04-22T19:49:16.814Z,48.70
2018-04-22T19:51:43.630Z,48.70
2018-04-22T19:54:10.692Z,49.10
2018-04-22T19:56:37.676Z,49.10
2018-04-22T19:59:06.412Z,48.70
2018-04-22T20:01:33.035Z,49.50
2018-04-22T20:04:01.141Z,49.90
2018-04-22T20:06:27.994Z,49.70
2018-04-22T20:08:54.846Z,49.90
2018-04-22T20:11:21.418Z,50.60
2018-04-22T20:13:49.442Z,51.30
2018-04-22T20:16:15.767Z,51.30
2018-04-22T20:18:42.696Z,51.20
2018-04-22T20:21:09.961Z,50.70
2018-04-22T20:23:36.957Z,50.80
2018-04-22T20:26:04.420Z,50.70
2018-04-22T20:28:30.953Z,50.70
2018-04-22T20:30:57.307Z,51.20
2018-04-22T20:33:24.480Z,51.20
2018-04-22T20:35:50.990Z,51.10
2018-04-22T20:38:17.181Z,51.30
2018-04-22T20:40:43.568Z,52.00
2018-04-22T20:43:10.591Z,51.60
2018-04-22T20:45:36.785Z,51.60
2018-04-22T20:48:03.115Z,52.20
2018-04-22T20:50:30.430Z,53.30
2018-04-22T20:52:58.023Z,52.90
2018-04-22T20:55:24.245Z,52.70
2018-04-22T20:57:51.802Z,53.90
2018-04-22T21:00:19.348Z,53.60
2018-04-22T21:02:45.813Z,54.50
2018-04-22T21:05:13.433Z,54.70
2018-04-22T21:07:40.665Z,54.50
2018-04-22T21:10:07.638Z,54.50
2018-04-22T21:12:34.437Z,54.60
2018-04-22T21:15:01.106Z,54.60
2018-04-22T21:17:28.097Z,55.70
2018-04-22T21:19:55.094Z,55.70
2018-04-22T21:22:21.613Z,55.70
2018-04-22T21:24:49.223Z,55.40
2018-04-22T21:27:15.608Z,55.40
2018-04-22T21:29:42.484Z,55.30
2018-04-22T21:32:08.713Z,55.50
2018-04-22T21:34:35.283Z,55.70
2018-04-22T21:37:02.253Z,56.00
2018-04-22T21:39:29.346Z,55.90
2018-04-22T21:41:57.047Z,55.60
2018-04-22T21:44:23.286Z,55.50
2018-04-22T21:46:50.056Z,55.70
2018-04-22T21:49:16.438Z,56.40
2018-04-22T21:51:44.620Z,57.00
2018-04-22T21:54:12.039Z,57.90
2018-04-22T21:56:38.265Z,57.90
2018-04-22T21:59:05.018Z,58.10
2018-04-22T22:01:31.272Z,58.20
2018-04-22T22:03:58.793Z,57.60
2018-04-22T22:06:25.421Z,57.60
2018-04-22T22:08:51.929Z,57.20
2018-04-22T22:11:18.448Z,56.60
2018-04-22T22:13:45.175Z,56.30
2018-04-22T22:16:12.132Z,56.50
2018-04-22T22:18:38.339Z,56.50
2018-04-22T22:21:05.622Z,57.10
2018-04-22T22:23:32.662Z,57.70
2018-04-22T22:25:58.887Z,57.60
2018-04-22T22:28:26.056Z,58.10
2018-04-22T22:30:52.756Z,58.80
2018-04-22T22:33:19.708Z,58.20
2018-04-22T22:35:48.257Z,57.70
2018-04-22T22:38:15.055Z,57.70
2018-04-22T22:40:41.653Z,57.60
2018-04-22T22:43:08.644Z,57.80
2018-04-22T22:45:35.397Z,57.20
2018-04-22T22:48:01.594Z,57.20
2018-04-22T22:50:28.013Z,57.30
2018-04-22T22:52:55.086Z,57.40
2018-04-22T22:55:21.709Z,57.30
2018-04-22T22:57:49.100Z,56.40
2018-04-22T23:00:17.127Z,56.00
2018-04-22T23:02:43.350Z,56.00
2018-04-22T23:05:09.575Z,56.00
2018-04-22T23:07:37.116Z,56.30
2018-04-22T23:10:03.342Z,56.30
2018-04-22T23:12:29.520Z,57.00
2018-04-22T23:14:56.560Z,56.50
2018-04-22T23:17:23.462Z,56.30
2018-04-22T23:19:50.210Z,56.50
2018-04-22T23:22:17.577Z,56.70
2018-04-22T23:24:45.113Z,56.60
2018-04-22T23:27:11.982Z,56.50
2018-04-22T23:29:38.202Z,57.50
2018-04-22T23:32:05.322Z,56.90
2018-04-22T23:34:32.952Z,57.10
2018-04-22T23:36:59.920Z,57.00
2018-04-22T23:39:26.134Z,56.80
2018-04-22T23:41:53.010Z,57.00
2018-04-22T23:44:20.271Z,56.80
2018-04-22T23:46:48.450Z,56.80
2018-04-22T23:49:15.445Z,57.00
2018-04-22T23:51:41.776Z,57.00
2018-04-22T23:54:08.093Z,57.00
2018-04-22T23:56:34.887Z,57.00
2018-04-22T23:59:03.281Z,56.60
